sensor_id;sensor_type;location;lat;lon;timestamp;temperature;humidity
39825;DHT22;25503;52.532;13.640;2023-03-14T00:01:59;12.80;99.90
39825;DHT22;25503;52.532;13.640;2023-03-14T00:04:25;12.70;99.90
39825;DHT22;25503;52.532;13.640;2023-03-14T00:06:50;12.70;99.90
39825;DHT22;25503;52.532;13.640;2023-03-14T00:09:17;12.70;99.90
39825;DHT22;25503;52.532;13.640;2023-03-14T00:11:43;12.70;99.90
39825;DHT22;25503;52.532;13.640;2023-03-14T00:14:09;12.70;99.90
39825;DHT22;25503;52.532;13.640;2023-03-14T00:16:34;12.70;99.90
39825;DHT22;25503;52.532;13.640;2023-03-14T00:19:00;12.60;99.90
39825;DHT22;25503;52.532;13.640;2023-03-14T00:21:26;12.60;99.90
39825;DHT22;25503;52.532;13.640;2023-03-14T00:23:52;12.70;99.90
39825;DHT22;25503;52.532;13.640;2023-03-14T00:26:20;12.60;99.90
39825;DHT22;25503;52.532;13.640;2023-03-14T00:28:46;12.60;99.90
39825;DHT22;25503;52.532;13.640;2023-03-14T00:31:14;12.60;99.90
39825;DHT22;25503;52.532;13.640;2023-03-14T00:33:41;12.60;99.90
39825;DHT22;25503;52.532;13.640;2023-03-14T00:36:12;12.60;99.90
39825;DHT22;25503;52.532;13.640;2023-03-14T00:38:40;12.60;99.90
39825;DHT22;25503;52.532;13.640;2023-03-14T00:41:08;12.50;99.90
39825;DHT22;25503;52.532;13.640;2023-03-14T00:43:34;12.50;99.90
39825;DHT22;25503;52.532;13.640;2023-03-14T00:46:00;12.50;99.90
39825;DHT22;25503;52.532;13.640;2023-03-14T00:48:26;12.40;99.90
39825;DHT22;25503;52.532;13.640;2023-03-14T00:50:52;12.40;99.90
39825;DHT22;25503;52.532;13.640;2023-03-14T00:53:21;12.40;99.90
39825;DHT22;25503;52.532;13.640;2023-03-14T00:55:47;12.40;99.90
39825;DHT22;25503;52.532;13.640;2023-03-14T00:58:14;12.30;99.90
39825;DHT22;25503;52.532;13.640;2023-03-14T01:00:40;12.30;99.90
39825;DHT22;25503;52.532;13.640;2023-03-14T01:03:07;12.30;99.90
39825;DHT22;25503;52.532;13.640;2023-03-14T01:05:34;12.30;99.90
39825;DHT22;25503;52.532;13.640;2023-03-14T01:08:00;12.30;99.90
39825;DHT22;25503;52.532;13.640;2023-03-14T01:10:26;12.20;99.90
39825;DHT22;25503;52.532;13.640;2023-03-14T01:12:51;12.20;99.90
39825;DHT22;25503;52.532;13.640;2023-03-14T01:15:17;12.20;99.90
39825;DHT22;25503;52.532;13.640;2023-03-14T01:17:43;12.20;99.90
39825;DHT22;25503;52.532;13.640;2023-03-14T01:20:11;12.20;99.90
39825;DHT22;25503;52.532;13.640;2023-03-14T01:22:38;12.20;99.90
39825;DHT22;25503;52.532;13.640;2023-03-14T01:25:10;12.10;99.90
39825;DHT22;25503;52.532;13.640;2023-03-14T01:27:36;12.10;99.90
39825;DHT22;25503;52.532;13.640;2023-03-14T01:30:03;12.10;99.90
39825;DHT22;25503;52.532;13.640;2023-03-14T01:32:30;12.10;99.90
39825;DHT22;25503;52.532;13.640;2023-03-14T01:34:56;12.10;99.90
39825;DHT22;25503;52.532;13.640;2023-03-14T01:37:21;12.00;99.90
39825;DHT22;25503;52.532;13.640;2023-03-14T01:39:47;12.00;99.90
39825;DHT22;25503;52.532;13.640;2023-03-14T01:42:14;12.00;99.90
39825;DHT22;25503;52.532;13.640;2023-03-14T01:47:15;12.00;99.90
39825;DHT22;25503;52.532;13.640;2023-03-14T01:49:40;12.00;99.90
39825;DHT22;25503;52.532;13.640;2023-03-14T01:52:19;12.10;99.90
39825;DHT22;25503;52.532;13.640;2023-03-14T01:55:00;12.10;99.90
39825;DHT22;25503;52.532;13.640;2023-03-14T01:57:37;12.10;99.90
39825;DHT22;25503;52.532;13.640;2023-03-14T02:00:09;12.10;99.90
39825;DHT22;25503;52.532;13.640;2023-03-14T02:02:41;12.10;99.90
39825;DHT22;25503;52.532;13.640;2023-03-14T02:05:09;12.10;99.90
39825;DHT22;25503;52.532;13.640;2023-03-14T02:10:09;12.00;99.90
39825;DHT22;25503;52.532;13.640;2023-03-14T02:12:36;12.10;99.90
39825;DHT22;25503;52.532;13.640;2023-03-14T02:15:03;12.00;99.90
39825;DHT22;25503;52.532;13.640;2023-03-14T02:17:29;12.00;99.90
39825;DHT22;25503;52.532;13.640;2023-03-14T02:22:38;12.00;99.90
39825;DHT22;25503;52.532;13.640;2023-03-14T02:27:55;11.90;99.90
39825;DHT22;25503;52.532;13.640;2023-03-14T02:30:24;11.90;99.90
39825;DHT22;25503;52.532;13.640;2023-03-14T02:35:39;11.80;99.90
39825;DHT22;25503;52.532;13.640;2023-03-14T02:38:29;11.80;99.90
39825;DHT22;25503;52.532;13.640;2023-03-14T02:40:56;11.80;99.90
39825;DHT22;25503;52.532;13.640;2023-03-14T02:43:22;11.70;99.90
39825;DHT22;25503;52.532;13.640;2023-03-14T02:45:50;11.70;99.90
39825;DHT22;25503;52.532;13.640;2023-03-14T02:48:25;11.70;99.90
39825;DHT22;25503;52.532;13.640;2023-03-14T02:50:54;11.70;99.90
39825;DHT22;25503;52.532;13.640;2023-03-14T02:53:27;11.70;99.90
39825;DHT22;25503;52.532;13.640;2023-03-14T02:55:54;11.70;99.90
39825;DHT22;25503;52.532;13.640;2023-03-14T02:58:21;11.70;99.90
39825;DHT22;25503;52.532;13.640;2023-03-14T03:00:47;11.70;99.90
39825;DHT22;25503;52.532;13.640;2023-03-14T03:03:14;11.60;99.90
39825;DHT22;25503;52.532;13.640;2023-03-14T03:05:40;11.70;99.90
39825;DHT22;25503;52.532;13.640;2023-03-14T03:08:05;11.70;99.90
39825;DHT22;25503;52.532;13.640;2023-03-14T03:10:32;11.60;99.90
39825;DHT22;25503;52.532;13.640;2023-03-14T03:12:58;11.60;99.90
39825;DHT22;25503;52.532;13.640;2023-03-14T03:15:23;11.60;99.90
39825;DHT22;25503;52.532;13.640;2023-03-14T03:17:49;11.50;99.90
39825;DHT22;25503;52.532;13.640;2023-03-14T03:20:15;11.60;99.90
39825;DHT22;25503;52.532;13.640;2023-03-14T03:22:41;11.60;99.90
39825;DHT22;25503;52.532;13.640;2023-03-14T03:25:08;11.60;99.90
39825;DHT22;25503;52.532;13.640;2023-03-14T03:27:35;11.50;99.90
39825;DHT22;25503;52.532;13.640;2023-03-14T03:30:02;11.60;99.90
39825;DHT22;25503;52.532;13.640;2023-03-14T03:32:31;11.60;99.90
39825;DHT22;25503;52.532;13.640;2023-03-14T03:34:57;11.60;99.90
39825;DHT22;25503;52.532;13.640;2023-03-14T03:37:23;11.60;99.90
39825;DHT22;25503;52.532;13.640;2023-03-14T03:39:50;11.50;99.90
39825;DHT22;25503;52.532;13.640;2023-03-14T03:42:20;11.60;99.90
39825;DHT22;25503;52.532;13.640;2023-03-14T03:44:45;11.60;99.90
39825;DHT22;25503;52.532;13.640;2023-03-14T03:47:14;11.60;99.90
39825;DHT22;25503;52.532;13.640;2023-03-14T03:49:40;11.70;99.90
39825;DHT22;25503;52.532;13.640;2023-03-14T03:52:06;11.70;99.90
39825;DHT22;25503;52.532;13.640;2023-03-14T03:54:32;11.70;99.90
39825;DHT22;25503;52.532;13.640;2023-03-14T03:56:57;11.80;99.90
39825;DHT22;25503;52.532;13.640;2023-03-14T03:59:23;11.70;99.90
39825;DHT22;25503;52.532;13.640;2023-03-14T04:01:49;11.70;99.90
39825;DHT22;25503;52.532;13.640;2023-03-14T04:04:18;11.70;99.90
39825;DHT22;25503;52.532;13.640;2023-03-14T04:06:44;11.70;99.90
39825;DHT22;25503;52.532;13.640;2023-03-14T04:09:10;11.70;99.90
39825;DHT22;25503;52.532;13.640;2023-03-14T04:11:36;11.70;99.90
39825;DHT22;25503;52.532;13.640;2023-03-14T04:14:03;11.70;99.90
39825;DHT22;25503;52.532;13.640;2023-03-14T04:16:29;11.70;99.90
39825;DHT22;25503;52.532;13.640;2023-03-14T04:18:57;11.70;99.90
39825;DHT22;25503;52.532;13.640;2023-03-14T04:21:22;11.70;99.90
39825;DHT22;25503;52.532;13.640;2023-03-14T04:23:49;11.70;99.90
39825;DHT22;25503;52.532;13.640;2023-03-14T04:26:15;11.60;99.90
39825;DHT22;25503;52.532;13.640;2023-03-14T04:28:40;11.70;99.90
39825;DHT22;25503;52.532;13.640;2023-03-14T04:31:10;11.60;99.90
39825;DHT22;25503;52.532;13.640;2023-03-14T04:33:36;11.60;99.90
39825;DHT22;25503;52.532;13.640;2023-03-14T04:36:04;11.60;99.90
39825;DHT22;25503;52.532;13.640;2023-03-14T04:38:30;11.60;99.90
39825;DHT22;25503;52.532;13.640;2023-03-14T04:40:56;11.60;99.90
39825;DHT22;25503;52.532;13.640;2023-03-14T04:43:25;11.60;99.90
39825;DHT22;25503;52.532;13.640;2023-03-14T04:45:53;11.60;99.90
39825;DHT22;25503;52.532;13.640;2023-03-14T04:48:18;11.60;99.90
39825;DHT22;25503;52.532;13.640;2023-03-14T04:50:46;11.60;99.90
39825;DHT22;25503;52.532;13.640;2023-03-14T04:53:12;11.50;99.90
39825;DHT22;25503;52.532;13.640;2023-03-14T04:55:38;11.50;99.90
39825;DHT22;25503;52.532;13.640;2023-03-14T04:58:04;11.60;99.90
39825;DHT22;25503;52.532;13.640;2023-03-14T05:00:30;11.60;99.90
39825;DHT22;25503;52.532;13.640;2023-03-14T05:03:01;11.50;99.90
39825;DHT22;25503;52.532;13.640;2023-03-14T05:05:27;11.50;99.90
39825;DHT22;25503;52.532;13.640;2023-03-14T05:07:53;11.40;99.90
39825;DHT22;25503;52.532;13.640;2023-03-14T05:10:19;11.40;99.90
39825;DHT22;25503;52.532;13.640;2023-03-14T05:12:44;11.40;99.90
39825;DHT22;25503;52.532;13.640;2023-03-14T05:15:13;11.40;99.90
39825;DHT22;25503;52.532;13.640;2023-03-14T05:17:39;11.40;99.90
39825;DHT22;25503;52.532;13.640;2023-03-14T05:20:05;11.30;99.90
39825;DHT22;25503;52.532;13.640;2023-03-14T05:22:34;11.30;99.90
39825;DHT22;25503;52.532;13.640;2023-03-14T05:25:00;11.30;99.90
39825;DHT22;25503;52.532;13.640;2023-03-14T05:27:26;11.30;99.90
39825;DHT22;25503;52.532;13.640;2023-03-14T05:29:51;11.20;99.90
39825;DHT22;25503;52.532;13.640;2023-03-14T05:32:17;11.20;99.90
39825;DHT22;25503;52.532;13.640;2023-03-14T05:34:43;11.20;99.90
39825;DHT22;25503;52.532;13.640;2023-03-14T05:37:08;11.20;99.90
39825;DHT22;25503;52.532;13.640;2023-03-14T05:39:34;11.20;99.90
39825;DHT22;25503;52.532;13.640;2023-03-14T05:42:00;11.20;99.90
39825;DHT22;25503;52.532;13.640;2023-03-14T05:44:26;11.20;99.90
39825;DHT22;25503;52.532;13.640;2023-03-14T05:46:57;11.20;99.90
39825;DHT22;25503;52.532;13.640;2023-03-14T05:49:22;11.30;99.90
39825;DHT22;25503;52.532;13.640;2023-03-14T05:51:48;11.30;99.90
39825;DHT22;25503;52.532;13.640;2023-03-14T05:54:14;11.30;99.90
39825;DHT22;25503;52.532;13.640;2023-03-14T05:56:40;11.30;99.90
39825;DHT22;25503;52.532;13.640;2023-03-14T05:59:06;11.30;99.90
39825;DHT22;25503;52.532;13.640;2023-03-14T06:01:34;11.30;99.90
39825;DHT22;25503;52.532;13.640;2023-03-14T06:04:00;11.30;99.90
39825;DHT22;25503;52.532;13.640;2023-03-14T06:06:26;11.30;99.90
39825;DHT22;25503;52.532;13.640;2023-03-14T06:08:52;11.30;99.90
39825;DHT22;25503;52.532;13.640;2023-03-14T06:11:17;11.30;99.90
39825;DHT22;25503;52.532;13.640;2023-03-14T06:13:43;11.40;99.90
39825;DHT22;25503;52.532;13.640;2023-03-14T06:16:09;11.40;99.90
39825;DHT22;25503;52.532;13.640;2023-03-14T06:18:34;11.40;99.90
39825;DHT22;25503;52.532;13.640;2023-03-14T06:21:00;11.40;99.90
39825;DHT22;25503;52.532;13.640;2023-03-14T06:23:26;11.40;99.90
39825;DHT22;25503;52.532;13.640;2023-03-14T06:25:52;11.50;99.90
39825;DHT22;25503;52.532;13.640;2023-03-14T06:28:18;11.50;99.90
39825;DHT22;25503;52.532;13.640;2023-03-14T06:30:44;11.50;99.90
39825;DHT22;25503;52.532;13.640;2023-03-14T06:33:09;11.50;99.90
39825;DHT22;25503;52.532;13.640;2023-03-14T06:35:35;11.50;99.90
39825;DHT22;25503;52.532;13.640;2023-03-14T06:38:02;11.50;99.90
39825;DHT22;25503;52.532;13.640;2023-03-14T06:40:28;11.50;99.90
39825;DHT22;25503;52.532;13.640;2023-03-14T06:42:53;11.50;99.90
39825;DHT22;25503;52.532;13.640;2023-03-14T06:45:22;11.50;99.90
39825;DHT22;25503;52.532;13.640;2023-03-14T06:47:48;11.50;99.90
39825;DHT22;25503;52.532;13.640;2023-03-14T06:50:14;11.50;99.90
39825;DHT22;25503;52.532;13.640;2023-03-14T06:52:40;11.50;99.90
39825;DHT22;25503;52.532;13.640;2023-03-14T06:55:16;11.60;99.90
39825;DHT22;25503;52.532;13.640;2023-03-14T06:57:42;11.60;99.90
39825;DHT22;25503;52.532;13.640;2023-03-14T07:00:10;11.60;99.90
39825;DHT22;25503;52.532;13.640;2023-03-14T07:02:36;11.70;99.90
39825;DHT22;25503;52.532;13.640;2023-03-14T07:05:02;11.70;99.90
39825;DHT22;25503;52.532;13.640;2023-03-14T07:07:28;11.70;99.90
39825;DHT22;25503;52.532;13.640;2023-03-14T07:09:53;11.70;99.90
39825;DHT22;25503;52.532;13.640;2023-03-14T07:12:19;11.80;99.90
39825;DHT22;25503;52.532;13.640;2023-03-14T07:14:46;11.80;99.90
39825;DHT22;25503;52.532;13.640;2023-03-14T07:17:12;11.90;99.90
39825;DHT22;25503;52.532;13.640;2023-03-14T07:19:37;12.00;99.90
39825;DHT22;25503;52.532;13.640;2023-03-14T07:22:04;12.00;99.90
39825;DHT22;25503;52.532;13.640;2023-03-14T07:24:30;12.10;99.90
39825;DHT22;25503;52.532;13.640;2023-03-14T07:26:55;12.10;99.90
39825;DHT22;25503;52.532;13.640;2023-03-14T07:29:27;12.20;99.90
39825;DHT22;25503;52.532;13.640;2023-03-14T07:31:53;12.10;99.90
39825;DHT22;25503;52.532;13.640;2023-03-14T07:34:19;12.10;99.90
39825;DHT22;25503;52.532;13.640;2023-03-14T07:36:45;12.20;99.90
39825;DHT22;25503;52.532;13.640;2023-03-14T07:39:10;12.10;99.90
39825;DHT22;25503;52.532;13.640;2023-03-14T07:41:42;12.10;99.90
39825;DHT22;25503;52.532;13.640;2023-03-14T07:44:11;12.20;99.90
39825;DHT22;25503;52.532;13.640;2023-03-14T07:46:36;12.10;99.90
39825;DHT22;25503;52.532;13.640;2023-03-14T07:49:02;12.20;99.90
39825;DHT22;25503;52.532;13.640;2023-03-14T07:51:28;12.20;99.90
39825;DHT22;25503;52.532;13.640;2023-03-14T07:53:54;12.20;99.90
39825;DHT22;25503;52.532;13.640;2023-03-14T07:56:19;12.20;99.90
39825;DHT22;25503;52.532;13.640;2023-03-14T07:58:45;12.20;99.90
39825;DHT22;25503;52.532;13.640;2023-03-14T08:01:14;12.20;99.90
39825;DHT22;25503;52.532;13.640;2023-03-14T08:03:40;12.20;99.90
39825;DHT22;25503;52.532;13.640;2023-03-14T08:06:06;12.10;99.90
39825;DHT22;25503;52.532;13.640;2023-03-14T08:08:31;12.20;99.90
39825;DHT22;25503;52.532;13.640;2023-03-14T08:11:03;12.20;99.90
39825;DHT22;25503;52.532;13.640;2023-03-14T08:13:29;12.30;99.90
39825;DHT22;25503;52.532;13.640;2023-03-14T08:15:55;12.30;99.90
39825;DHT22;25503;52.532;13.640;2023-03-14T08:18:20;12.40;99.90
39825;DHT22;25503;52.532;13.640;2023-03-14T08:20:46;12.50;99.90
39825;DHT22;25503;52.532;13.640;2023-03-14T08:23:11;12.50;99.90
39825;DHT22;25503;52.532;13.640;2023-03-14T08:25:38;12.60;99.90
39825;DHT22;25503;52.532;13.640;2023-03-14T08:28:04;12.60;99.90
39825;DHT22;25503;52.532;13.640;2023-03-14T08:30:30;12.70;99.90
39825;DHT22;25503;52.532;13.640;2023-03-14T08:32:59;12.70;99.90
39825;DHT22;25503;52.532;13.640;2023-03-14T08:35:25;12.70;99.90
39825;DHT22;25503;52.532;13.640;2023-03-14T08:37:51;12.80;99.90
39825;DHT22;25503;52.532;13.640;2023-03-14T08:40:18;12.80;99.90
39825;DHT22;25503;52.532;13.640;2023-03-14T08:42:44;12.80;99.90
39825;DHT22;25503;52.532;13.640;2023-03-14T08:45:12;12.80;99.90
39825;DHT22;25503;52.532;13.640;2023-03-14T08:47:40;12.80;99.90
39825;DHT22;25503;52.532;13.640;2023-03-14T08:50:06;12.80;99.90
39825;DHT22;25503;52.532;13.640;2023-03-14T08:52:32;12.80;99.90
39825;DHT22;25503;52.532;13.640;2023-03-14T08:54:58;12.90;99.90
39825;DHT22;25503;52.532;13.640;2023-03-14T08:57:25;12.90;99.90
39825;DHT22;25503;52.532;13.640;2023-03-14T08:59:56;12.90;99.90
39825;DHT22;25503;52.532;13.640;2023-03-14T09:02:23;12.90;99.90
39825;DHT22;25503;52.532;13.640;2023-03-14T09:04:53;12.90;99.90
39825;DHT22;25503;52.532;13.640;2023-03-14T09:07:19;13.00;99.90
39825;DHT22;25503;52.532;13.640;2023-03-14T09:09:45;13.00;99.90
39825;DHT22;25503;52.532;13.640;2023-03-14T09:12:11;13.00;99.90
39825;DHT22;25503;52.532;13.640;2023-03-14T09:14:36;13.00;99.90
39825;DHT22;25503;52.532;13.640;2023-03-14T09:17:03;13.00;99.90
39825;DHT22;25503;52.532;13.640;2023-03-14T09:19:30;13.00;99.90
39825;DHT22;25503;52.532;13.640;2023-03-14T09:21:55;13.10;99.90
39825;DHT22;25503;52.532;13.640;2023-03-14T09:24:21;13.10;99.90
39825;DHT22;25503;52.532;13.640;2023-03-14T09:26:47;13.10;99.90
39825;DHT22;25503;52.532;13.640;2023-03-14T09:29:16;13.10;99.90
39825;DHT22;25503;52.532;13.640;2023-03-14T09:31:41;13.30;99.90
39825;DHT22;25503;52.532;13.640;2023-03-14T09:34:07;13.40;99.90
39825;DHT22;25503;52.532;13.640;2023-03-14T09:36:33;13.50;99.90
39825;DHT22;25503;52.532;13.640;2023-03-14T09:38:58;13.60;99.90
39825;DHT22;25503;52.532;13.640;2023-03-14T09:41:33;13.70;99.90
39825;DHT22;25503;52.532;13.640;2023-03-14T09:44:04;13.80;99.90
39825;DHT22;25503;52.532;13.640;2023-03-14T09:46:31;13.90;99.90
39825;DHT22;25503;52.532;13.640;2023-03-14T09:48:58;14.00;99.90
39825;DHT22;25503;52.532;13.640;2023-03-14T09:51:24;14.00;99.90
39825;DHT22;25503;52.532;13.640;2023-03-14T09:53:51;14.10;99.90
39825;DHT22;25503;52.532;13.640;2023-03-14T09:56:23;14.20;99.90
39825;DHT22;25503;52.532;13.640;2023-03-14T09:58:57;14.40;99.90
39825;DHT22;25503;52.532;13.640;2023-03-14T10:01:32;14.60;99.90
39825;DHT22;25503;52.532;13.640;2023-03-14T10:04:02;14.60;99.90
39825;DHT22;25503;52.532;13.640;2023-03-14T10:06:30;14.50;99.90
39825;DHT22;25503;52.532;13.640;2023-03-14T10:08:56;14.40;99.90
39825;DHT22;25503;52.532;13.640;2023-03-14T10:11:23;14.30;99.90
39825;DHT22;25503;52.532;13.640;2023-03-14T10:14:03;14.30;99.90
39825;DHT22;25503;52.532;13.640;2023-03-14T10:16:36;14.20;99.90
39825;DHT22;25503;52.532;13.640;2023-03-14T10:19:04;14.10;99.90
39825;DHT22;25503;52.532;13.640;2023-03-14T10:21:39;14.10;99.90
39825;DHT22;25503;52.532;13.640;2023-03-14T10:24:19;14.10;99.90
39825;DHT22;25503;52.532;13.640;2023-03-14T10:26:49;14.00;99.90
39825;DHT22;25503;52.532;13.640;2023-03-14T10:29:18;14.00;99.90
39825;DHT22;25503;52.532;13.640;2023-03-14T10:34:17;14.00;99.90
39825;DHT22;25503;52.532;13.640;2023-03-14T10:36:43;14.00;99.90
39825;DHT22;25503;52.532;13.640;2023-03-14T10:39:25;14.00;99.90
39825;DHT22;25503;52.532;13.640;2023-03-14T10:42:03;14.00;99.90
39825;DHT22;25503;52.532;13.640;2023-03-14T10:44:30;14.00;99.90
39825;DHT22;25503;52.532;13.640;2023-03-14T10:47:03;14.00;99.90
39825;DHT22;25503;52.532;13.640;2023-03-14T10:49:35;14.00;99.90
39825;DHT22;25503;52.532;13.640;2023-03-14T10:52:12;14.00;99.90
39825;DHT22;25503;52.532;13.640;2023-03-14T10:54:39;13.90;99.90
39825;DHT22;25503;52.532;13.640;2023-03-14T10:57:05;13.90;99.90
39825;DHT22;25503;52.532;13.640;2023-03-14T10:59:36;13.90;99.90
39825;DHT22;25503;52.532;13.640;2023-03-14T11:07:39;13.80;99.90
39825;DHT22;25503;52.532;13.640;2023-03-14T11:27:03;13.80;99.90
39825;DHT22;25503;52.532;13.640;2023-03-14T11:32:59;13.70;99.90
39825;DHT22;25503;52.532;13.640;2023-03-14T11:34:59;13.70;99.90
39825;DHT22;25503;52.532;13.640;2023-03-14T11:37:46;13.70;99.90
39825;DHT22;25503;52.532;13.640;2023-03-14T11:40:17;13.70;99.90
39825;DHT22;25503;52.532;13.640;2023-03-14T11:42:48;13.80;99.90
39825;DHT22;25503;52.532;13.640;2023-03-14T11:45:24;13.70;99.90
39825;DHT22;25503;52.532;13.640;2023-03-14T11:48:16;13.70;99.90
39825;DHT22;25503;52.532;13.640;2023-03-14T11:50:44;13.70;99.90
39825;DHT22;25503;52.532;13.640;2023-03-14T11:53:28;13.80;99.90
39825;DHT22;25503;52.532;13.640;2023-03-14T11:55:55;13.70;99.90
39825;DHT22;25503;52.532;13.640;2023-03-14T11:58:34;13.70;99.90
39825;DHT22;25503;52.532;13.640;2023-03-14T12:01:08;13.70;99.90
39825;DHT22;25503;52.532;13.640;2023-03-14T12:03:35;13.70;99.90
39825;DHT22;25503;52.532;13.640;2023-03-14T12:06:28;13.70;99.90
39825;DHT22;25503;52.532;13.640;2023-03-14T12:08:59;13.70;99.90
39825;DHT22;25503;52.532;13.640;2023-03-14T12:11:57;13.60;99.90
39825;DHT22;25503;52.532;13.640;2023-03-14T12:14:27;13.60;99.90
39825;DHT22;25503;52.532;13.640;2023-03-14T12:16:59;13.50;99.90
39825;DHT22;25503;52.532;13.640;2023-03-14T12:19:31;13.60;99.90
39825;DHT22;25503;52.532;13.640;2023-03-14T12:24:51;13.50;99.90
39825;DHT22;25503;52.532;13.640;2023-03-14T12:27:40;13.40;99.90
39825;DHT22;25503;52.532;13.640;2023-03-14T12:30:57;13.30;99.90
39825;DHT22;25503;52.532;13.640;2023-03-14T12:35:48;13.30;99.90
39825;DHT22;25503;52.532;13.640;2023-03-14T12:43:40;13.40;99.90
39825;DHT22;25503;52.532;13.640;2023-03-14T12:46:07;13.40;99.90
39825;DHT22;25503;52.532;13.640;2023-03-14T12:48:33;13.50;99.90
39825;DHT22;25503;52.532;13.640;2023-03-14T12:51:05;13.50;99.90
39825;DHT22;25503;52.532;13.640;2023-03-14T13:04:35;13.70;99.90
39825;DHT22;25503;52.532;13.640;2023-03-14T13:07:13;13.80;99.90
39825;DHT22;25503;52.532;13.640;2023-03-14T13:10:23;13.80;99.90
39825;DHT22;25503;52.532;13.640;2023-03-14T13:15:35;13.80;99.90
39825;DHT22;25503;52.532;13.640;2023-03-14T13:20:38;13.80;99.90
39825;DHT22;25503;52.532;13.640;2023-03-14T13:23:18;13.80;99.90
39825;DHT22;25503;52.532;13.640;2023-03-14T13:25:47;13.80;99.90
39825;DHT22;25503;52.532;13.640;2023-03-14T13:28:14;13.80;99.90
39825;DHT22;25503;52.532;13.640;2023-03-14T13:30:58;13.60;99.90
39825;DHT22;25503;52.532;13.640;2023-03-14T13:33:24;13.40;99.90
39825;DHT22;25503;52.532;13.640;2023-03-14T13:36:02;13.10;99.90
39825;DHT22;25503;52.532;13.640;2023-03-14T13:38:31;13.00;99.90
39825;DHT22;25503;52.532;13.640;2023-03-14T13:40:59;12.80;99.90
39825;DHT22;25503;52.532;13.640;2023-03-14T13:43:32;12.60;99.90
39825;DHT22;25503;52.532;13.640;2023-03-14T13:46:20;12.50;99.90
39825;DHT22;25503;52.532;13.640;2023-03-14T13:48:52;12.30;99.90
39825;DHT22;25503;52.532;13.640;2023-03-14T13:51:20;12.20;99.90
39825;DHT22;25503;52.532;13.640;2023-03-14T13:53:54;12.10;99.90
39825;DHT22;25503;52.532;13.640;2023-03-14T13:56:28;12.20;99.90
39825;DHT22;25503;52.532;13.640;2023-03-14T13:58:55;12.40;99.90
39825;DHT22;25503;52.532;13.640;2023-03-14T14:01:24;12.60;99.90
39825;DHT22;25503;52.532;13.640;2023-03-14T14:03:53;12.70;99.90
39825;DHT22;25503;52.532;13.640;2023-03-14T14:06:35;12.80;99.90
39825;DHT22;25503;52.532;13.640;2023-03-14T14:09:11;12.90;99.90
39825;DHT22;25503;52.532;13.640;2023-03-14T14:14:17;13.00;99.90
39825;DHT22;25503;52.532;13.640;2023-03-14T14:16:44;13.00;99.90
39825;DHT22;25503;52.532;13.640;2023-03-14T14:19:12;13.10;99.90
39825;DHT22;25503;52.532;13.640;2023-03-14T14:21:39;13.00;99.90
39825;DHT22;25503;52.532;13.640;2023-03-14T14:24:15;13.00;99.90
39825;DHT22;25503;52.532;13.640;2023-03-14T14:26:47;13.10;99.90
39825;DHT22;25503;52.532;13.640;2023-03-14T14:29:25;13.10;99.90
39825;DHT22;25503;52.532;13.640;2023-03-14T14:35:00;13.20;99.90
39825;DHT22;25503;52.532;13.640;2023-03-14T14:37:31;13.30;99.90
39825;DHT22;25503;52.532;13.640;2023-03-14T14:39:59;13.40;99.90
39825;DHT22;25503;52.532;13.640;2023-03-14T14:42:29;13.40;99.90
39825;DHT22;25503;52.532;13.640;2023-03-14T14:44:57;13.40;99.90
39825;DHT22;25503;52.532;13.640;2023-03-14T14:47:25;13.50;99.90
39825;DHT22;25503;52.532;13.640;2023-03-14T14:49:53;13.60;99.90
39825;DHT22;25503;52.532;13.640;2023-03-14T14:52:22;13.60;99.90
39825;DHT22;25503;52.532;13.640;2023-03-14T14:54:59;13.60;99.90
39825;DHT22;25503;52.532;13.640;2023-03-14T14:57:27;13.60;99.90
39825;DHT22;25503;52.532;13.640;2023-03-14T15:00:01;13.70;99.90
39825;DHT22;25503;52.532;13.640;2023-03-14T15:02:31;13.70;99.90
39825;DHT22;25503;52.532;13.640;2023-03-14T15:04:57;13.60;99.90
39825;DHT22;25503;52.532;13.640;2023-03-14T15:07:23;13.60;99.90
39825;DHT22;25503;52.532;13.640;2023-03-14T15:09:52;13.50;99.90
39825;DHT22;25503;52.532;13.640;2023-03-14T15:12:17;13.50;99.90
39825;DHT22;25503;52.532;13.640;2023-03-14T15:14:43;13.50;99.90
39825;DHT22;25503;52.532;13.640;2023-03-14T15:17:10;13.50;99.90
39825;DHT22;25503;52.532;13.640;2023-03-14T15:19:37;13.50;99.90
39825;DHT22;25503;52.532;13.640;2023-03-14T15:22:04;13.40;99.90
39825;DHT22;25503;52.532;13.640;2023-03-14T15:24:34;13.30;99.90
39825;DHT22;25503;52.532;13.640;2023-03-14T15:27:00;13.40;99.90
39825;DHT22;25503;52.532;13.640;2023-03-14T15:29:26;13.30;99.90
39825;DHT22;25503;52.532;13.640;2023-03-14T15:31:52;13.30;99.90
39825;DHT22;25503;52.532;13.640;2023-03-14T15:34:17;13.20;99.90
39825;DHT22;25503;52.532;13.640;2023-03-14T15:36:43;13.20;99.90
39825;DHT22;25503;52.532;13.640;2023-03-14T15:39:10;12.80;99.90
39825;DHT22;25503;52.532;13.640;2023-03-14T15:41:36;11.60;99.90
39825;DHT22;25503;52.532;13.640;2023-03-14T15:44:02;10.50;99.90
39825;DHT22;25503;52.532;13.640;2023-03-14T15:46:28;9.60;99.90
39825;DHT22;25503;52.532;13.640;2023-03-14T15:48:53;9.00;99.90
39825;DHT22;25503;52.532;13.640;2023-03-14T15:51:19;8.40;99.90
39825;DHT22;25503;52.532;13.640;2023-03-14T15:53:45;7.90;99.90
39825;DHT22;25503;52.532;13.640;2023-03-14T15:56:13;7.60;99.90
39825;DHT22;25503;52.532;13.640;2023-03-14T15:58:39;7.20;99.90
39825;DHT22;25503;52.532;13.640;2023-03-14T16:01:09;6.90;99.90
39825;DHT22;25503;52.532;13.640;2023-03-14T16:03:35;6.60;99.90
39825;DHT22;25503;52.532;13.640;2023-03-14T16:06:01;6.30;99.90
39825;DHT22;25503;52.532;13.640;2023-03-14T16:08:27;5.90;99.90
39825;DHT22;25503;52.532;13.640;2023-03-14T16:10:56;5.60;99.90
39825;DHT22;25503;52.532;13.640;2023-03-14T16:13:23;5.30;99.90
39825;DHT22;25503;52.532;13.640;2023-03-14T16:15:56;5.10;99.90
39825;DHT22;25503;52.532;13.640;2023-03-14T16:18:22;4.90;99.90
39825;DHT22;25503;52.532;13.640;2023-03-14T16:20:56;4.70;99.90
39825;DHT22;25503;52.532;13.640;2023-03-14T16:23:22;4.50;99.90
39825;DHT22;25503;52.532;13.640;2023-03-14T16:25:52;4.40;99.90
39825;DHT22;25503;52.532;13.640;2023-03-14T16:28:18;4.20;99.90
39825;DHT22;25503;52.532;13.640;2023-03-14T16:30:44;4.00;99.90
39825;DHT22;25503;52.532;13.640;2023-03-14T16:33:09;3.80;99.90
39825;DHT22;25503;52.532;13.640;2023-03-14T16:35:39;3.60;99.90
39825;DHT22;25503;52.532;13.640;2023-03-14T16:38:05;3.40;99.90
39825;DHT22;25503;52.532;13.640;2023-03-14T16:40:31;3.20;99.90